Manor, Georgia
Current Conditions -  °F | °C
As of 6:55 PM on Tuesday 25 Nov 2014 (Local Time) from KHOE Reporting Station
Drizzle Drizzle  
Wind Chill: 54°   Ceiling: 500
Heat Index: 54°   Visibility: 10mi
Dew Point: 54°   Wind: 7mph
Humidity: 100%   Direction: 20°NNE
Pressure: 30"   Gusts: NA
Location:  31.1°N, 82.57°W
Report Text: KHOE 252355Z AUTO 02006KT 10SM DZ BKN005 BKN008 OVC034 12/12 A3000 RMK AO2
Loading
Personal Weather Stations






























Interactive Weather Map New forecast layout! Learn more

10-Day Weather Forecast

Advertisements
Track Severe Weather on mobile